sensor_id;sensor_type;location;lat;lon;timestamp;P1;durP1;ratioP1;P2;durP2;ratioP2
43696;SDS011;29301;47.620;19.560;2023-04-03T00:01:32;0.70;;;0.60;;
43696;SDS011;29301;47.620;19.560;2023-04-03T00:03:58;0.80;;;0.55;;
43696;SDS011;29301;47.620;19.560;2023-04-03T00:06:24;0.80;;;0.60;;
43696;SDS011;29301;47.620;19.560;2023-04-03T00:08:52;0.80;;;0.55;;
43696;SDS011;29301;47.620;19.560;2023-04-03T00:11:18;0.80;;;0.60;;
43696;SDS011;29301;47.620;19.560;2023-04-03T00:13:44;0.77;;;0.60;;
43696;SDS011;29301;47.620;19.560;2023-04-03T00:16:10;0.70;;;0.60;;
43696;SDS011;29301;47.620;19.560;2023-04-03T00:18:36;0.90;;;0.60;;
43696;SDS011;29301;47.620;19.560;2023-04-03T00:21:03;0.70;;;0.60;;
43696;SDS011;29301;47.620;19.560;2023-04-03T00:23:29;0.80;;;0.60;;
43696;SDS011;29301;47.620;19.560;2023-04-03T00:25:55;0.85;;;0.60;;
43696;SDS011;29301;47.620;19.560;2023-04-03T00:28:21;0.80;;;0.60;;
43696;SDS011;29301;47.620;19.560;2023-04-03T00:30:48;0.85;;;0.60;;
43696;SDS011;29301;47.620;19.560;2023-04-03T00:33:15;0.70;;;0.60;;
43696;SDS011;29301;47.620;19.560;2023-04-03T00:35:41;0.80;;;0.60;;
43696;SDS011;29301;47.620;19.560;2023-04-03T00:38:07;0.80;;;0.60;;
43696;SDS011;29301;47.620;19.560;2023-04-03T00:40:35;0.80;;;0.60;;
43696;SDS011;29301;47.620;19.560;2023-04-03T00:43:05;0.80;;;0.60;;
43696;SDS011;29301;47.620;19.560;2023-04-03T00:45:38;0.80;;;0.60;;
43696;SDS011;29301;47.620;19.560;2023-04-03T00:48:07;0.80;;;0.60;;
43696;SDS011;29301;47.620;19.560;2023-04-03T00:50:40;0.80;;;0.60;;
43696;SDS011;29301;47.620;19.560;2023-04-03T00:53:08;0.90;;;0.60;;
43696;SDS011;29301;47.620;19.560;2023-04-03T00:55:37;0.80;;;0.60;;
43696;SDS011;29301;47.620;19.560;2023-04-03T00:58:04;0.90;;;0.65;;
43696;SDS011;29301;47.620;19.560;2023-04-03T01:00:32;1.05;;;0.70;;
43696;SDS011;29301;47.620;19.560;2023-04-03T01:02:58;0.80;;;0.60;;
43696;SDS011;29301;47.620;19.560;2023-04-03T01:05:25;0.80;;;0.60;;
43696;SDS011;29301;47.620;19.560;2023-04-03T01:07:51;0.80;;;0.60;;
43696;SDS011;29301;47.620;19.560;2023-04-03T01:10:18;0.90;;;0.60;;
43696;SDS011;29301;47.620;19.560;2023-04-03T01:12:46;0.80;;;0.60;;
43696;SDS011;29301;47.620;19.560;2023-04-03T01:17:57;1.00;;;0.70;;
43696;SDS011;29301;47.620;19.560;2023-04-03T01:25:35;1.00;;;0.70;;
43696;SDS011;29301;47.620;19.560;2023-04-03T01:28:07;0.93;;;0.65;;
43696;SDS011;29301;47.620;19.560;2023-04-03T01:30:36;0.82;;;0.60;;
43696;SDS011;29301;47.620;19.560;2023-04-03T01:33:10;0.80;;;0.60;;
43696;SDS011;29301;47.620;19.560;2023-04-03T01:35:35;0.80;;;0.60;;
43696;SDS011;29301;47.620;19.560;2023-04-03T01:38:02;0.80;;;0.60;;
43696;SDS011;29301;47.620;19.560;2023-04-03T01:40:27;0.80;;;0.60;;
43696;SDS011;29301;47.620;19.560;2023-04-03T01:42:53;0.90;;;0.60;;
43696;SDS011;29301;47.620;19.560;2023-04-03T01:45:19;0.90;;;0.60;;
43696;SDS011;29301;47.620;19.560;2023-04-03T01:47:45;0.80;;;0.60;;
43696;SDS011;29301;47.620;19.560;2023-04-03T01:50:10;0.90;;;0.65;;
43696;SDS011;29301;47.620;19.560;2023-04-03T01:52:36;0.80;;;0.60;;
43696;SDS011;29301;47.620;19.560;2023-04-03T01:55:02;0.80;;;0.60;;
43696;SDS011;29301;47.620;19.560;2023-04-03T01:57:28;0.80;;;0.60;;
43696;SDS011;29301;47.620;19.560;2023-04-03T01:59:54;0.80;;;0.60;;
43696;SDS011;29301;47.620;19.560;2023-04-03T02:02:19;0.80;;;0.60;;
43696;SDS011;29301;47.620;19.560;2023-04-03T02:04:45;0.80;;;0.60;;
43696;SDS011;29301;47.620;19.560;2023-04-03T02:07:11;0.80;;;0.60;;
43696;SDS011;29301;47.620;19.560;2023-04-03T02:09:37;0.85;;;0.60;;
43696;SDS011;29301;47.620;19.560;2023-04-03T02:12:02;0.80;;;0.60;;
43696;SDS011;29301;47.620;19.560;2023-04-03T02:14:28;0.85;;;0.60;;
43696;SDS011;29301;47.620;19.560;2023-04-03T02:16:54;0.80;;;0.60;;
43696;SDS011;29301;47.620;19.560;2023-04-03T02:19:20;0.85;;;0.60;;
43696;SDS011;29301;47.620;19.560;2023-04-03T02:21:45;0.85;;;0.60;;
43696;SDS011;29301;47.620;19.560;2023-04-03T02:24:11;0.80;;;0.60;;
43696;SDS011;29301;47.620;19.560;2023-04-03T02:26:37;0.80;;;0.60;;
43696;SDS011;29301;47.620;19.560;2023-04-03T02:29:02;0.70;;;0.60;;
43696;SDS011;29301;47.620;19.560;2023-04-03T02:31:28;0.80;;;0.60;;
43696;SDS011;29301;47.620;19.560;2023-04-03T02:33:54;0.80;;;0.60;;
43696;SDS011;29301;47.620;19.560;2023-04-03T02:36:20;0.80;;;0.60;;
43696;SDS011;29301;47.620;19.560;2023-04-03T02:38:45;0.80;;;0.60;;
43696;SDS011;29301;47.620;19.560;2023-04-03T02:41:12;0.80;;;0.60;;
43696;SDS011;29301;47.620;19.560;2023-04-03T02:43:38;0.80;;;0.60;;
43696;SDS011;29301;47.620;19.560;2023-04-03T02:46:04;0.85;;;0.60;;
43696;SDS011;29301;47.620;19.560;2023-04-03T02:48:31;0.90;;;0.60;;
43696;SDS011;29301;47.620;19.560;2023-04-03T02:50:57;0.80;;;0.60;;
43696;SDS011;29301;47.620;19.560;2023-04-03T02:53:23;0.90;;;0.65;;
43696;SDS011;29301;47.620;19.560;2023-04-03T02:55:49;0.80;;;0.60;;
43696;SDS011;29301;47.620;19.560;2023-04-03T02:58:15;0.80;;;0.60;;
43696;SDS011;29301;47.620;19.560;2023-04-03T03:00:41;0.80;;;0.60;;
43696;SDS011;29301;47.620;19.560;2023-04-03T03:03:06;0.80;;;0.60;;
43696;SDS011;29301;47.620;19.560;2023-04-03T03:05:32;0.90;;;0.70;;
43696;SDS011;29301;47.620;19.560;2023-04-03T03:07:58;0.80;;;0.60;;
43696;SDS011;29301;47.620;19.560;2023-04-03T03:10:24;0.80;;;0.60;;
43696;SDS011;29301;47.620;19.560;2023-04-03T03:12:49;0.80;;;0.60;;
43696;SDS011;29301;47.620;19.560;2023-04-03T03:15:15;0.90;;;0.60;;
43696;SDS011;29301;47.620;19.560;2023-04-03T03:17:42;0.93;;;0.70;;
43696;SDS011;29301;47.620;19.560;2023-04-03T03:20:08;0.80;;;0.60;;
43696;SDS011;29301;47.620;19.560;2023-04-03T03:22:34;0.80;;;0.60;;
43696;SDS011;29301;47.620;19.560;2023-04-03T03:25:00;0.70;;;0.50;;
43696;SDS011;29301;47.620;19.560;2023-04-03T03:27:27;0.70;;;0.60;;
43696;SDS011;29301;47.620;19.560;2023-04-03T03:29:53;0.90;;;0.60;;
43696;SDS011;29301;47.620;19.560;2023-04-03T03:32:19;0.82;;;0.60;;
43696;SDS011;29301;47.620;19.560;2023-04-03T03:34:45;0.85;;;0.60;;
43696;SDS011;29301;47.620;19.560;2023-04-03T03:37:10;0.80;;;0.60;;
43696;SDS011;29301;47.620;19.560;2023-04-03T03:39:36;0.80;;;0.60;;
43696;SDS011;29301;47.620;19.560;2023-04-03T03:42:02;0.90;;;0.60;;
43696;SDS011;29301;47.620;19.560;2023-04-03T03:44:28;0.80;;;0.60;;
43696;SDS011;29301;47.620;19.560;2023-04-03T03:46:54;0.80;;;0.60;;
43696;SDS011;29301;47.620;19.560;2023-04-03T03:49:20;0.85;;;0.60;;
43696;SDS011;29301;47.620;19.560;2023-04-03T03:51:46;0.90;;;0.60;;
43696;SDS011;29301;47.620;19.560;2023-04-03T03:54:12;0.90;;;0.70;;
43696;SDS011;29301;47.620;19.560;2023-04-03T03:56:38;0.90;;;0.70;;
43696;SDS011;29301;47.620;19.560;2023-04-03T03:59:04;1.00;;;0.70;;
43696;SDS011;29301;47.620;19.560;2023-04-03T04:01:30;0.80;;;0.60;;
43696;SDS011;29301;47.620;19.560;2023-04-03T04:03:56;0.80;;;0.60;;
43696;SDS011;29301;47.620;19.560;2023-04-03T04:06:22;0.80;;;0.60;;
43696;SDS011;29301;47.620;19.560;2023-04-03T04:08:48;0.82;;;0.60;;
43696;SDS011;29301;47.620;19.560;2023-04-03T04:11:14;0.85;;;0.60;;
43696;SDS011;29301;47.620;19.560;2023-04-03T04:13:40;1.02;;;0.70;;
43696;SDS011;29301;47.620;19.560;2023-04-03T04:16:06;1.00;;;0.70;;
43696;SDS011;29301;47.620;19.560;2023-04-03T04:18:32;0.73;;;0.60;;
43696;SDS011;29301;47.620;19.560;2023-04-03T04:20:58;0.90;;;0.60;;
43696;SDS011;29301;47.620;19.560;2023-04-03T04:23:23;0.90;;;0.70;;
43696;SDS011;29301;47.620;19.560;2023-04-03T04:25:49;1.00;;;0.70;;
43696;SDS011;29301;47.620;19.560;2023-04-03T04:28:15;1.02;;;0.70;;
43696;SDS011;29301;47.620;19.560;2023-04-03T04:30:41;0.90;;;0.70;;
43696;SDS011;29301;47.620;19.560;2023-04-03T04:33:07;0.90;;;0.70;;
43696;SDS011;29301;47.620;19.560;2023-04-03T04:35:33;1.00;;;0.70;;
43696;SDS011;29301;47.620;19.560;2023-04-03T04:37:59;1.00;;;0.70;;
43696;SDS011;29301;47.620;19.560;2023-04-03T04:40:25;1.02;;;0.70;;
43696;SDS011;29301;47.620;19.560;2023-04-03T04:42:51;0.90;;;0.70;;
43696;SDS011;29301;47.620;19.560;2023-04-03T04:45:17;1.00;;;0.70;;
43696;SDS011;29301;47.620;19.560;2023-04-03T04:47:42;1.10;;;0.70;;
43696;SDS011;29301;47.620;19.560;2023-04-03T04:50:08;1.10;;;0.70;;
43696;SDS011;29301;47.620;19.560;2023-04-03T04:52:34;1.20;;;0.80;;
43696;SDS011;29301;47.620;19.560;2023-04-03T04:55:00;1.20;;;0.80;;
43696;SDS011;29301;47.620;19.560;2023-04-03T04:57:26;1.10;;;0.70;;
43696;SDS011;29301;47.620;19.560;2023-04-03T04:59:52;1.00;;;0.70;;
43696;SDS011;29301;47.620;19.560;2023-04-03T05:02:17;1.20;;;0.80;;
43696;SDS011;29301;47.620;19.560;2023-04-03T05:04:43;1.20;;;0.80;;
43696;SDS011;29301;47.620;19.560;2023-04-03T05:07:09;1.10;;;0.70;;
43696;SDS011;29301;47.620;19.560;2023-04-03T05:09:35;1.17;;;0.77;;
43696;SDS011;29301;47.620;19.560;2023-04-03T05:12:01;1.02;;;0.70;;
43696;SDS011;29301;47.620;19.560;2023-04-03T05:14:27;1.00;;;0.70;;
43696;SDS011;29301;47.620;19.560;2023-04-03T05:16:53;1.20;;;0.70;;
43696;SDS011;29301;47.620;19.560;2023-04-03T05:19:22;1.10;;;0.70;;
43696;SDS011;29301;47.620;19.560;2023-04-03T05:21:48;1.00;;;0.70;;
43696;SDS011;29301;47.620;19.560;2023-04-03T05:24:14;1.00;;;0.70;;
43696;SDS011;29301;47.620;19.560;2023-04-03T05:26:41;1.10;;;0.70;;
43696;SDS011;29301;47.620;19.560;2023-04-03T05:29:07;1.20;;;0.77;;
43696;SDS011;29301;47.620;19.560;2023-04-03T05:31:33;1.00;;;0.70;;
43696;SDS011;29301;47.620;19.560;2023-04-03T05:33:59;1.00;;;0.70;;
43696;SDS011;29301;47.620;19.560;2023-04-03T05:36:25;1.10;;;0.70;;
43696;SDS011;29301;47.620;19.560;2023-04-03T05:38:51;1.10;;;0.70;;
43696;SDS011;29301;47.620;19.560;2023-04-03T05:41:17;1.00;;;0.70;;
43696;SDS011;29301;47.620;19.560;2023-04-03T05:43:43;1.10;;;0.70;;
43696;SDS011;29301;47.620;19.560;2023-04-03T05:46:16;0.95;;;0.70;;
43696;SDS011;29301;47.620;19.560;2023-04-03T05:48:43;1.10;;;0.70;;
43696;SDS011;29301;47.620;19.560;2023-04-03T05:51:17;1.10;;;0.70;;
43696;SDS011;29301;47.620;19.560;2023-04-03T05:53:44;1.00;;;0.70;;
43696;SDS011;29301;47.620;19.560;2023-04-03T05:56:11;1.10;;;0.70;;
43696;SDS011;29301;47.620;19.560;2023-04-03T05:58:37;1.00;;;0.70;;
43696;SDS011;29301;47.620;19.560;2023-04-03T06:01:03;1.00;;;0.70;;
43696;SDS011;29301;47.620;19.560;2023-04-03T06:03:30;0.90;;;0.60;;
43696;SDS011;29301;47.620;19.560;2023-04-03T06:05:56;0.90;;;0.70;;
43696;SDS011;29301;47.620;19.560;2023-04-03T06:08:22;1.00;;;0.70;;
43696;SDS011;29301;47.620;19.560;2023-04-03T06:10:49;1.00;;;0.70;;
43696;SDS011;29301;47.620;19.560;2023-04-03T06:13:16;1.10;;;0.70;;
43696;SDS011;29301;47.620;19.560;2023-04-03T06:15:42;1.00;;;0.70;;
43696;SDS011;29301;47.620;19.560;2023-04-03T06:18:07;1.00;;;0.70;;
43696;SDS011;29301;47.620;19.560;2023-04-03T06:20:33;0.90;;;0.63;;
43696;SDS011;29301;47.620;19.560;2023-04-03T06:22:59;0.90;;;0.68;;
43696;SDS011;29301;47.620;19.560;2023-04-03T06:25:25;1.00;;;0.70;;
43696;SDS011;29301;47.620;19.560;2023-04-03T06:27:51;0.90;;;0.70;;
43696;SDS011;29301;47.620;19.560;2023-04-03T06:30:17;0.90;;;0.70;;
43696;SDS011;29301;47.620;19.560;2023-04-03T06:32:43;1.00;;;0.70;;
43696;SDS011;29301;47.620;19.560;2023-04-03T06:35:08;0.90;;;0.60;;
43696;SDS011;29301;47.620;19.560;2023-04-03T06:37:34;0.90;;;0.60;;
43696;SDS011;29301;47.620;19.560;2023-04-03T06:40:00;1.00;;;0.70;;
43696;SDS011;29301;47.620;19.560;2023-04-03T06:42:27;0.90;;;0.70;;
43696;SDS011;29301;47.620;19.560;2023-04-03T06:44:53;0.90;;;0.65;;
43696;SDS011;29301;47.620;19.560;2023-04-03T06:47:19;0.90;;;0.60;;
43696;SDS011;29301;47.620;19.560;2023-04-03T06:49:45;1.00;;;0.70;;
43696;SDS011;29301;47.620;19.560;2023-04-03T06:52:10;0.90;;;0.70;;
43696;SDS011;29301;47.620;19.560;2023-04-03T06:54:39;0.90;;;0.60;;
43696;SDS011;29301;47.620;19.560;2023-04-03T06:57:06;0.80;;;0.60;;
43696;SDS011;29301;47.620;19.560;2023-04-03T06:59:32;0.90;;;0.60;;
43696;SDS011;29301;47.620;19.560;2023-04-03T07:01:59;0.80;;;0.60;;
43696;SDS011;29301;47.620;19.560;2023-04-03T07:04:25;1.00;;;0.70;;
43696;SDS011;29301;47.620;19.560;2023-04-03T07:06:51;0.98;;;0.70;;
43696;SDS011;29301;47.620;19.560;2023-04-03T07:09:17;0.80;;;0.60;;
43696;SDS011;29301;47.620;19.560;2023-04-03T07:11:43;0.80;;;0.60;;
43696;SDS011;29301;47.620;19.560;2023-04-03T07:14:09;0.90;;;0.60;;
43696;SDS011;29301;47.620;19.560;2023-04-03T07:16:35;0.80;;;0.60;;
43696;SDS011;29301;47.620;19.560;2023-04-03T07:19:01;0.80;;;0.60;;
43696;SDS011;29301;47.620;19.560;2023-04-03T07:21:27;0.80;;;0.60;;
43696;SDS011;29301;47.620;19.560;2023-04-03T07:23:54;0.80;;;0.60;;
43696;SDS011;29301;47.620;19.560;2023-04-03T07:26:20;0.70;;;0.60;;
43696;SDS011;29301;47.620;19.560;2023-04-03T07:28:47;0.80;;;0.60;;
43696;SDS011;29301;47.620;19.560;2023-04-03T07:31:14;0.80;;;0.60;;
43696;SDS011;29301;47.620;19.560;2023-04-03T07:33:41;0.80;;;0.60;;
43696;SDS011;29301;47.620;19.560;2023-04-03T07:36:08;0.80;;;0.60;;
43696;SDS011;29301;47.620;19.560;2023-04-03T07:38:35;0.85;;;0.60;;
43696;SDS011;29301;47.620;19.560;2023-04-03T07:41:02;0.80;;;0.60;;
43696;SDS011;29301;47.620;19.560;2023-04-03T07:43:28;0.73;;;0.60;;
43696;SDS011;29301;47.620;19.560;2023-04-03T07:45:55;0.80;;;0.60;;
43696;SDS011;29301;47.620;19.560;2023-04-03T07:48:21;0.80;;;0.60;;
43696;SDS011;29301;47.620;19.560;2023-04-03T07:50:48;0.70;;;0.50;;
43696;SDS011;29301;47.620;19.560;2023-04-03T07:53:13;0.80;;;0.60;;
43696;SDS011;29301;47.620;19.560;2023-04-03T07:55:40;0.80;;;0.60;;
43696;SDS011;29301;47.620;19.560;2023-04-03T07:58:09;0.80;;;0.60;;
43696;SDS011;29301;47.620;19.560;2023-04-03T08:00:37;0.80;;;0.60;;
43696;SDS011;29301;47.620;19.560;2023-04-03T08:03:03;0.70;;;0.50;;
43696;SDS011;29301;47.620;19.560;2023-04-03T08:05:29;0.70;;;0.50;;
43696;SDS011;29301;47.620;19.560;2023-04-03T08:07:54;0.70;;;0.57;;
43696;SDS011;29301;47.620;19.560;2023-04-03T08:10:20;0.80;;;0.60;;
43696;SDS011;29301;47.620;19.560;2023-04-03T08:12:46;0.80;;;0.60;;
43696;SDS011;29301;47.620;19.560;2023-04-03T08:15:12;0.70;;;0.60;;
43696;SDS011;29301;47.620;19.560;2023-04-03T08:17:38;0.70;;;0.50;;
43696;SDS011;29301;47.620;19.560;2023-04-03T08:20:04;0.70;;;0.50;;
43696;SDS011;29301;47.620;19.560;2023-04-03T08:22:33;0.80;;;0.60;;
43696;SDS011;29301;47.620;19.560;2023-04-03T08:24:59;0.80;;;0.60;;
43696;SDS011;29301;47.620;19.560;2023-04-03T08:27:26;0.70;;;0.50;;
43696;SDS011;29301;47.620;19.560;2023-04-03T08:29:53;0.70;;;0.60;;
43696;SDS011;29301;47.620;19.560;2023-04-03T08:32:19;0.80;;;0.57;;
43696;SDS011;29301;47.620;19.560;2023-04-03T08:34:45;0.70;;;0.50;;
43696;SDS011;29301;47.620;19.560;2023-04-03T08:37:11;0.70;;;0.50;;
43696;SDS011;29301;47.620;19.560;2023-04-03T08:39:37;0.70;;;0.50;;
43696;SDS011;29301;47.620;19.560;2023-04-03T08:42:03;0.80;;;0.50;;
43696;SDS011;29301;47.620;19.560;2023-04-03T08:44:47;0.70;;;0.50;;
43696;SDS011;29301;47.620;19.560;2023-04-03T08:50:08;0.77;;;0.50;;
43696;SDS011;29301;47.620;19.560;2023-04-03T08:57:40;0.70;;;0.50;;
43696;SDS011;29301;47.620;19.560;2023-04-03T09:02:48;0.70;;;0.50;;
43696;SDS011;29301;47.620;19.560;2023-04-03T09:05:17;0.68;;;0.40;;
43696;SDS011;29301;47.620;19.560;2023-04-03T09:07:47;0.80;;;0.50;;
43696;SDS011;29301;47.620;19.560;2023-04-03T09:10:19;0.70;;;0.50;;
43696;SDS011;29301;47.620;19.560;2023-04-03T09:13:04;0.68;;;0.40;;
43696;SDS011;29301;47.620;19.560;2023-04-03T09:15:35;0.70;;;0.50;;
43696;SDS011;29301;47.620;19.560;2023-04-03T09:18:05;0.70;;;0.50;;
43696;SDS011;29301;47.620;19.560;2023-04-03T09:23:55;0.70;;;0.50;;
43696;SDS011;29301;47.620;19.560;2023-04-03T09:26:28;0.70;;;0.40;;
43696;SDS011;29301;47.620;19.560;2023-04-03T09:28:58;0.70;;;0.50;;
43696;SDS011;29301;47.620;19.560;2023-04-03T09:31:30;0.70;;;0.40;;
43696;SDS011;29301;47.620;19.560;2023-04-03T09:34:03;0.70;;;0.50;;
43696;SDS011;29301;47.620;19.560;2023-04-03T09:36:45;0.70;;;0.50;;
43696;SDS011;29301;47.620;19.560;2023-04-03T09:39:16;0.70;;;0.50;;
43696;SDS011;29301;47.620;19.560;2023-04-03T09:41:54;0.70;;;0.50;;
43696;SDS011;29301;47.620;19.560;2023-04-03T09:44:21;0.70;;;0.50;;
43696;SDS011;29301;47.620;19.560;2023-04-03T09:46:49;0.70;;;0.50;;
43696;SDS011;29301;47.620;19.560;2023-04-03T09:49:15;0.70;;;0.40;;
43696;SDS011;29301;47.620;19.560;2023-04-03T09:51:42;0.70;;;0.50;;
43696;SDS011;29301;47.620;19.560;2023-04-03T09:57:09;0.70;;;0.50;;
43696;SDS011;29301;47.620;19.560;2023-04-03T10:02:24;0.70;;;0.40;;
43696;SDS011;29301;47.620;19.560;2023-04-03T10:05:05;0.70;;;0.50;;
43696;SDS011;29301;47.620;19.560;2023-04-03T10:10:44;0.70;;;0.50;;
43696;SDS011;29301;47.620;19.560;2023-04-03T10:13:13;0.70;;;0.50;;
43696;SDS011;29301;47.620;19.560;2023-04-03T10:15:41;0.70;;;0.40;;
43696;SDS011;29301;47.620;19.560;2023-04-03T10:24:36;0.60;;;0.40;;
43696;SDS011;29301;47.620;19.560;2023-04-03T10:35:25;0.70;;;0.50;;
43696;SDS011;29301;47.620;19.560;2023-04-03T10:43:33;0.70;;;0.40;;
43696;SDS011;29301;47.620;19.560;2023-04-03T10:46:13;0.70;;;0.50;;
43696;SDS011;29301;47.620;19.560;2023-04-03T10:48:58;0.70;;;0.40;;
43696;SDS011;29301;47.620;19.560;2023-04-03T10:51:45;0.70;;;0.50;;
43696;SDS011;29301;47.620;19.560;2023-04-03T10:54:24;0.65;;;0.40;;
43696;SDS011;29301;47.620;19.560;2023-04-03T10:56:56;0.70;;;0.40;;
43696;SDS011;29301;47.620;19.560;2023-04-03T10:59:34;0.70;;;0.45;;
43696;SDS011;29301;47.620;19.560;2023-04-03T11:02:11;0.60;;;0.40;;
43696;SDS011;29301;47.620;19.560;2023-04-03T11:04:44;0.60;;;0.40;;
43696;SDS011;29301;47.620;19.560;2023-04-03T11:07:29;0.70;;;0.50;;
43696;SDS011;29301;47.620;19.560;2023-04-03T11:10:03;0.70;;;0.50;;
43696;SDS011;29301;47.620;19.560;2023-04-03T11:15:19;0.70;;;0.47;;
43696;SDS011;29301;47.620;19.560;2023-04-03T11:17:48;0.70;;;0.40;;
43696;SDS011;29301;47.620;19.560;2023-04-03T11:20:21;0.70;;;0.50;;
43696;SDS011;29301;47.620;19.560;2023-04-03T11:26:04;0.70;;;0.50;;
43696;SDS011;29301;47.620;19.560;2023-04-03T11:28:36;0.70;;;0.50;;
43696;SDS011;29301;47.620;19.560;2023-04-03T11:33:55;0.70;;;0.50;;
43696;SDS011;29301;47.620;19.560;2023-04-03T11:36:53;0.70;;;0.50;;
43696;SDS011;29301;47.620;19.560;2023-04-03T11:41:52;0.80;;;0.50;;
43696;SDS011;29301;47.620;19.560;2023-04-03T11:44:32;0.70;;;0.50;;
43696;SDS011;29301;47.620;19.560;2023-04-03T11:47:03;0.70;;;0.50;;
43696;SDS011;29301;47.620;19.560;2023-04-03T11:49:50;0.70;;;0.50;;
43696;SDS011;29301;47.620;19.560;2023-04-03T12:13:38;0.60;;;0.40;;
43696;SDS011;29301;47.620;19.560;2023-04-03T12:21:19;0.80;;;0.60;;
43696;SDS011;29301;47.620;19.560;2023-04-03T12:24:23;0.70;;;0.50;;
43696;SDS011;29301;47.620;19.560;2023-04-03T12:42:34;0.70;;;0.50;;
43696;SDS011;29301;47.620;19.560;2023-04-03T12:45:19;0.80;;;0.50;;
43696;SDS011;29301;47.620;19.560;2023-04-03T12:47:46;0.70;;;0.50;;
43696;SDS011;29301;47.620;19.560;2023-04-03T12:50:35;0.70;;;0.50;;
43696;SDS011;29301;47.620;19.560;2023-04-03T12:55:47;0.70;;;0.50;;
43696;SDS011;29301;47.620;19.560;2023-04-03T12:58:27;0.70;;;0.50;;
43696;SDS011;29301;47.620;19.560;2023-04-03T13:01:03;0.70;;;0.50;;
43696;SDS011;29301;47.620;19.560;2023-04-03T13:03:39;0.70;;;0.50;;
43696;SDS011;29301;47.620;19.560;2023-04-03T13:06:10;0.70;;;0.50;;
43696;SDS011;29301;47.620;19.560;2023-04-03T13:09:00;0.70;;;0.50;;
43696;SDS011;29301;47.620;19.560;2023-04-03T13:11:27;0.70;;;0.50;;
43696;SDS011;29301;47.620;19.560;2023-04-03T13:16:27;0.63;;;0.40;;
43696;SDS011;29301;47.620;19.560;2023-04-03T13:18:53;0.70;;;0.50;;
43696;SDS011;29301;47.620;19.560;2023-04-03T13:21:24;0.70;;;0.50;;
43696;SDS011;29301;47.620;19.560;2023-04-03T13:23:53;0.70;;;0.50;;
43696;SDS011;29301;47.620;19.560;2023-04-03T13:26:22;0.70;;;0.50;;
43696;SDS011;29301;47.620;19.560;2023-04-03T13:28:51;0.70;;;0.50;;
43696;SDS011;29301;47.620;19.560;2023-04-03T13:31:28;0.75;;;0.50;;
43696;SDS011;29301;47.620;19.560;2023-04-03T13:39:23;0.60;;;0.40;;
43696;SDS011;29301;47.620;19.560;2023-04-03T13:41:56;0.70;;;0.50;;
43696;SDS011;29301;47.620;19.560;2023-04-03T13:44:29;0.70;;;0.50;;
43696;SDS011;29301;47.620;19.560;2023-04-03T13:46:56;0.60;;;0.40;;
43696;SDS011;29301;47.620;19.560;2023-04-03T13:52:23;0.70;;;0.50;;
43696;SDS011;29301;47.620;19.560;2023-04-03T13:54:54;0.70;;;0.50;;
43696;SDS011;29301;47.620;19.560;2023-04-03T13:58:51;0.70;;;0.40;;
43696;SDS011;29301;47.620;19.560;2023-04-03T14:00:55;0.70;;;0.50;;
43696;SDS011;29301;47.620;19.560;2023-04-03T14:03:30;0.70;;;0.40;;
43696;SDS011;29301;47.620;19.560;2023-04-03T14:05:58;0.70;;;0.50;;
43696;SDS011;29301;47.620;19.560;2023-04-03T14:08:24;0.70;;;0.50;;
43696;SDS011;29301;47.620;19.560;2023-04-03T14:10:50;0.70;;;0.50;;
43696;SDS011;29301;47.620;19.560;2023-04-03T14:13:17;0.68;;;0.50;;
43696;SDS011;29301;47.620;19.560;2023-04-03T14:15:44;0.70;;;0.50;;
43696;SDS011;29301;47.620;19.560;2023-04-03T14:18:14;0.70;;;0.40;;
43696;SDS011;29301;47.620;19.560;2023-04-03T14:20:41;0.60;;;0.40;;
43696;SDS011;29301;47.620;19.560;2023-04-03T14:23:07;0.70;;;0.47;;
43696;SDS011;29301;47.620;19.560;2023-04-03T14:25:33;0.70;;;0.45;;
43696;SDS011;29301;47.620;19.560;2023-04-03T14:28:00;0.60;;;0.40;;
43696;SDS011;29301;47.620;19.560;2023-04-03T14:30:30;0.70;;;0.50;;
43696;SDS011;29301;47.620;19.560;2023-04-03T14:32:58;0.70;;;0.50;;
43696;SDS011;29301;47.620;19.560;2023-04-03T14:35:25;0.60;;;0.40;;
43696;SDS011;29301;47.620;19.560;2023-04-03T14:37:52;0.70;;;0.50;;
43696;SDS011;29301;47.620;19.560;2023-04-03T14:40:20;0.63;;;0.40;;
43696;SDS011;29301;47.620;19.560;2023-04-03T14:42:49;0.70;;;0.50;;
43696;SDS011;29301;47.620;19.560;2023-04-03T14:45:16;0.60;;;0.40;;
43696;SDS011;29301;47.620;19.560;2023-04-03T14:47:44;0.80;;;0.50;;
43696;SDS011;29301;47.620;19.560;2023-04-03T14:50:19;0.70;;;0.50;;
43696;SDS011;29301;47.620;19.560;2023-04-03T14:52:51;0.70;;;0.50;;
43696;SDS011;29301;47.620;19.560;2023-04-03T14:55:19;0.70;;;0.50;;
43696;SDS011;29301;47.620;19.560;2023-04-03T14:57:46;0.70;;;0.50;;
43696;SDS011;29301;47.620;19.560;2023-04-03T15:00:13;0.70;;;0.50;;
43696;SDS011;29301;47.620;19.560;2023-04-03T15:02:44;0.70;;;0.50;;
43696;SDS011;29301;47.620;19.560;2023-04-03T15:05:10;0.70;;;0.50;;
43696;SDS011;29301;47.620;19.560;2023-04-03T15:07:41;0.70;;;0.50;;
43696;SDS011;29301;47.620;19.560;2023-04-03T15:10:33;0.77;;;0.50;;
43696;SDS011;29301;47.620;19.560;2023-04-03T15:12:59;0.70;;;0.50;;
43696;SDS011;29301;47.620;19.560;2023-04-03T15:15:27;0.80;;;0.50;;
43696;SDS011;29301;47.620;19.560;2023-04-03T15:17:54;0.70;;;0.60;;
43696;SDS011;29301;47.620;19.560;2023-04-03T15:20:24;0.70;;;0.50;;
43696;SDS011;29301;47.620;19.560;2023-04-03T15:22:51;0.70;;;0.50;;
43696;SDS011;29301;47.620;19.560;2023-04-03T15:25:17;0.80;;;0.60;;
43696;SDS011;29301;47.620;19.560;2023-04-03T15:27:43;0.70;;;0.50;;
43696;SDS011;29301;47.620;19.560;2023-04-03T15:30:16;0.70;;;0.50;;
43696;SDS011;29301;47.620;19.560;2023-04-03T15:32:44;0.80;;;0.60;;
43696;SDS011;29301;47.620;19.560;2023-04-03T15:35:10;0.80;;;0.50;;
43696;SDS011;29301;47.620;19.560;2023-04-03T15:37:36;0.80;;;0.60;;
43696;SDS011;29301;47.620;19.560;2023-04-03T15:40:02;0.70;;;0.60;;
43696;SDS011;29301;47.620;19.560;2023-04-03T15:42:32;0.80;;;0.60;;
43696;SDS011;29301;47.620;19.560;2023-04-03T15:44:58;0.90;;;0.60;;
43696;SDS011;29301;47.620;19.560;2023-04-03T15:47:24;0.70;;;0.60;;
43696;SDS011;29301;47.620;19.560;2023-04-03T15:49:51;0.80;;;0.60;;
43696;SDS011;29301;47.620;19.560;2023-04-03T15:52:18;0.80;;;0.60;;
43696;SDS011;29301;47.620;19.560;2023-04-03T15:54:43;0.70;;;0.60;;
43696;SDS011;29301;47.620;19.560;2023-04-03T15:57:09;0.70;;;0.60;;
43696;SDS011;29301;47.620;19.560;2023-04-03T15:59:35;0.70;;;0.50;;
43696;SDS011;29301;47.620;19.560;2023-04-03T16:02:01;0.82;;;0.60;;
43696;SDS011;29301;47.620;19.560;2023-04-03T16:04:29;0.80;;;0.60;;
43696;SDS011;29301;47.620;19.560;2023-04-03T16:06:55;0.80;;;0.60;;
43696;SDS011;29301;47.620;19.560;2023-04-03T16:09:20;0.80;;;0.60;;
43696;SDS011;29301;47.620;19.560;2023-04-03T16:11:46;0.80;;;0.60;;
43696;SDS011;29301;47.620;19.560;2023-04-03T16:14:12;0.80;;;0.60;;
43696;SDS011;29301;47.620;19.560;2023-04-03T16:16:40;0.80;;;0.60;;
43696;SDS011;29301;47.620;19.560;2023-04-03T16:19:06;0.80;;;0.60;;
43696;SDS011;29301;47.620;19.560;2023-04-03T16:21:32;0.80;;;0.60;;
43696;SDS011;29301;47.620;19.560;2023-04-03T16:23:58;0.80;;;0.60;;
43696;SDS011;29301;47.620;19.560;2023-04-03T16:26:24;0.80;;;0.60;;
43696;SDS011;29301;47.620;19.560;2023-04-03T16:28:50;0.80;;;0.60;;
43696;SDS011;29301;47.620;19.560;2023-04-03T16:31:16;0.80;;;0.60;;
43696;SDS011;29301;47.620;19.560;2023-04-03T16:33:42;0.80;;;0.60;;
43696;SDS011;29301;47.620;19.560;2023-04-03T16:36:08;0.80;;;0.60;;
43696;SDS011;29301;47.620;19.560;2023-04-03T16:38:35;0.80;;;0.60;;